createdAt,value
2022-07-29T00:09:25.481Z,77.91
2022-07-29T00:14:24.709Z,77.92
2022-07-29T00:19:23.605Z,78.37
2022-07-29T00:24:23.042Z,78.66
2022-07-29T00:29:37.886Z,79.64
2022-07-29T00:34:54.799Z,80.67
2022-07-29T00:39:53.695Z,81.08
2022-07-29T00:44:52.924Z,80.41
2022-07-29T00:49:52.550Z,80.21
2022-07-29T00:54:51.961Z,80.01
2022-07-29T00:59:51.946Z,79.87
2022-07-29T01:04:51.580Z,79.85
2022-07-29T01:09:51.101Z,80.10
2022-07-29T01:14:52.625Z,80.61
2022-07-29T01:20:04.572Z,80.85
2022-07-29T01:25:22.328Z,81.03
2022-07-29T01:30:25.190Z,81.17
2022-07-29T01:35:33.893Z,81.96
2022-07-29T01:40:40.555Z,82.51
2022-07-29T01:45:50.204Z,82.03
2022-07-29T01:50:56.096Z,81.63
2022-07-29T01:55:57.737Z,81.72
2022-07-29T02:01:00.640Z,82.10
2022-07-29T02:06:04.572Z,82.47
2022-07-29T02:11:06.058Z,82.74
2022-07-29T02:16:08.596Z,82.46
2022-07-29T02:21:14.800Z,82.44
2022-07-29T02:26:15.369Z,82.38
2022-07-29T02:31:17.424Z,82.61
2022-07-29T02:36:18.440Z,82.96
2022-07-29T02:41:22.492Z,82.97
2022-07-29T02:46:31.584Z,83.15
2022-07-29T02:51:44.746Z,83.28
2022-07-29T02:56:47.810Z,83.57
2022-07-29T03:01:50.342Z,83.48
2022-07-29T03:06:51.057Z,83.46
2022-07-29T03:11:52.348Z,84.14
2022-07-29T03:16:53.578Z,84.95
2022-07-29T03:21:54.366Z,84.67
2022-07-29T03:26:54.324Z,84.51
2022-07-29T03:31:52.956Z,84.62
2022-07-29T03:36:53.427Z,84.94
2022-07-29T03:41:57.723Z,85.17
2022-07-29T03:47:03.534Z,85.07
2022-07-29T03:52:04.101Z,85.00
2022-07-29T03:57:05.685Z,85.15
2022-07-29T04:02:06.891Z,85.24
2022-07-29T04:07:06.215Z,85.73
2022-07-29T04:12:09.244Z,87.15
2022-07-29T04:17:09.012Z,87.72
2022-07-29T04:22:28.749Z,87.66
2022-07-29T04:27:28.025Z,87.15
2022-07-29T04:32:27.654Z,87.04
2022-07-29T04:37:26.825Z,87.23
2022-07-29T04:42:27.771Z,87.37
2022-07-29T04:47:28.454Z,87.45
2022-07-29T04:52:28.103Z,87.48
2022-07-29T04:57:29.328Z,87.73
2022-07-29T05:02:27.934Z,88.04
2022-07-29T05:07:26.921Z,87.85
2022-07-29T05:12:25.952Z,87.79
2022-07-29T05:17:25.205Z,87.83
2022-07-29T05:22:28.081Z,87.59
2022-07-29T05:27:27.266Z,87.22
2022-07-29T05:32:28.818Z,86.88
2022-07-29T05:37:28.488Z,86.35
2022-07-29T05:42:30.340Z,86.06
2022-07-29T05:47:30.184Z,85.88
2022-07-29T05:52:29.683Z,85.65
2022-07-29T05:57:29.630Z,85.45
2022-07-29T06:02:30.153Z,84.90
2022-07-29T06:07:31.756Z,84.50
2022-07-29T06:12:33.489Z,83.96
2022-07-29T06:17:32.022Z,83.43
2022-07-29T06:22:31.718Z,83.24
2022-07-29T06:27:32.478Z,82.79
2022-07-29T06:32:32.345Z,82.12
2022-07-29T06:37:31.687Z,81.42
2022-07-29T06:42:32.678Z,80.59
2022-07-29T06:47:31.995Z,80.04
2022-07-29T06:52:33.494Z,79.40
2022-07-29T06:57:32.675Z,78.76
2022-07-29T07:02:34.147Z,78.26
2022-07-29T07:07:35.167Z,77.41
2022-07-29T07:12:35.977Z,76.81
2022-07-29T07:17:35.207Z,75.48
2022-07-29T07:22:38.615Z,74.95
2022-07-29T07:27:38.417Z,73.98
2022-07-29T07:32:37.451Z,73.48
2022-07-29T07:37:41.881Z,72.81
2022-07-29T07:42:48.850Z,72.15
2022-07-29T07:47:49.318Z,71.68
2022-07-29T07:52:58.993Z,70.39
2022-07-29T07:57:59.238Z,70.29
2022-07-29T08:02:58.784Z,69.46
2022-07-29T08:07:58.790Z,68.61
2022-07-29T08:12:58.072Z,67.86
2022-07-29T08:17:57.521Z,66.71
2022-07-29T08:23:00.325Z,66.92
2022-07-29T08:27:59.571Z,66.34
2022-07-29T08:32:59.897Z,65.34
2022-07-29T08:38:00.049Z,64.90
2022-07-29T08:43:00.894Z,63.17
2022-07-29T08:48:01.045Z,63.17
2022-07-29T08:53:00.751Z,64.09
2022-07-29T08:58:01.220Z,62.31
2022-07-29T09:03:03.960Z,61.14
2022-07-29T09:08:03.856Z,60.62
2022-07-29T09:13:05.188Z,59.86
2022-07-29T09:18:04.600Z,58.10
2022-07-29T09:23:13.077Z,56.86
2022-07-29T09:28:24.945Z,54.65
2022-07-29T09:33:35.686Z,53.35
2022-07-29T09:38:36.370Z,53.69
2022-07-29T09:43:37.186Z,51.98
2022-07-29T09:48:35.640Z,50.43
2022-07-29T09:53:43.151Z,51.45
2022-07-29T09:58:42.310Z,50.13
2022-07-29T10:03:56.645Z,48.08
2022-07-29T10:08:55.863Z,48.26
2022-07-29T10:13:56.030Z,47.09
2022-07-29T10:18:55.855Z,47.20
2022-07-29T10:23:56.365Z,45.21
2022-07-29T10:29:01.669Z,45.25
2022-07-29T10:34:17.931Z,45.56
2022-07-29T10:39:41.779Z,43.84
2022-07-29T10:44:47.606Z,44.06
2022-07-29T10:50:04.224Z,43.79
2022-07-29T10:55:06.006Z,42.15
2022-07-29T11:00:36.303Z,41.20
2022-07-29T11:05:56.494Z,40.21
2022-07-29T11:11:51.615Z,39.40
2022-07-29T11:17:06.995Z,38.80
2022-07-29T11:22:10.129Z,38.38
2022-07-29T11:27:18.376Z,38.41
2022-07-29T11:37:42.527Z,37.73
2022-07-29T11:42:56.699Z,38.26
2022-07-29T11:48:27.665Z,38.24
2022-07-29T11:53:21.779Z,36.91
2022-07-29T11:58:27.393Z,37.01
2022-07-29T12:03:32.913Z,36.59
2022-07-29T12:07:03.248Z,37.32
2022-07-29T12:08:44.927Z,35.76
2022-07-29T12:13:45.616Z,35.00
2022-07-29T12:18:56.830Z,33.87
2022-07-29T12:24:08.957Z,31.96
2022-07-29T12:29:14.075Z,31.75
2022-07-29T14:24:57.285Z,23.77
2022-07-29T14:29:56.796Z,23.93
2022-07-29T14:34:56.159Z,23.36
2022-07-29T14:39:55.682Z,23.98
2022-07-29T14:44:55.327Z,25.05
2022-07-29T14:49:54.676Z,25.50
2022-07-29T14:56:37.143Z,25.99
2022-07-29T15:30:34.109Z,26.34
2022-07-29T15:35:40.039Z,25.54
2022-07-29T15:41:25.935Z,24.73
2022-07-29T15:46:42.623Z,25.41
2022-07-29T15:51:42.701Z,24.66
2022-07-29T15:56:42.418Z,24.39
2022-07-29T16:01:42.681Z,24.93
2022-07-29T16:06:44.913Z,25.35
2022-07-29T16:11:44.186Z,26.30
2022-07-29T16:16:45.114Z,26.24
2022-07-29T16:21:45.267Z,26.68
2022-07-29T16:26:44.806Z,26.61
2022-07-29T16:31:44.922Z,26.16
2022-07-29T16:36:47.728Z,26.99
2022-07-29T16:41:47.749Z,27.35
2022-07-29T16:46:49.421Z,28.72
2022-07-29T16:51:49.502Z,29.79
2022-07-29T16:56:49.518Z,31.18
2022-07-29T17:01:53.626Z,31.87
2022-07-29T17:06:53.247Z,32.01
2022-07-29T17:11:55.249Z,32.81
2022-07-29T17:17:01.019Z,33.34
2022-07-29T17:22:09.390Z,34.18
2022-07-29T17:27:10.284Z,34.80
2022-07-29T17:32:11.860Z,35.51
2022-07-29T17:37:13.814Z,35.73
2022-07-29T17:42:15.663Z,36.27
2022-07-29T17:47:16.756Z,37.25
2022-07-29T17:52:18.698Z,37.88
2022-07-29T17:57:19.035Z,38.70
2022-07-29T18:02:18.968Z,39.52
2022-07-29T18:07:18.802Z,40.27
2022-07-29T18:12:22.731Z,40.79
2022-07-29T18:17:22.451Z,41.45
2022-07-29T18:22:45.279Z,42.47
2022-07-29T18:27:45.399Z,42.84
2022-07-29T18:33:04.953Z,43.31
2022-07-29T18:38:06.248Z,44.49
2022-07-29T18:43:06.284Z,45.88
2022-07-29T18:48:06.519Z,45.95
2022-07-29T18:53:08.060Z,45.92
2022-07-29T18:58:07.302Z,46.19
2022-07-29T19:03:07.026Z,46.75
2022-07-29T19:08:07.650Z,47.53
2022-07-29T19:13:06.892Z,48.04
2022-07-29T19:18:07.312Z,48.80
2022-07-29T19:23:07.088Z,48.49
2022-07-29T19:28:06.452Z,49.13
2022-07-29T19:33:05.793Z,49.04
2022-07-29T19:38:06.792Z,49.62
2022-07-29T19:43:51.059Z,49.91
2022-07-29T19:48:31.563Z,50.55
2022-07-29T19:53:31.198Z,50.98
2022-07-29T19:58:30.515Z,51.72
2022-07-29T20:03:32.635Z,51.73
2022-07-29T20:08:31.800Z,52.13
2022-07-29T20:13:33.316Z,53.32
2022-07-29T20:18:32.323Z,52.77
2022-07-29T20:23:33.459Z,53.44
2022-07-29T20:28:33.098Z,52.73
2022-07-29T20:33:32.420Z,53.00
2022-07-29T20:38:31.557Z,53.23
2022-07-29T20:43:35.919Z,53.72
2022-07-29T20:48:42.903Z,54.74
2022-07-29T20:53:44.376Z,55.27
2022-07-29T20:58:45.257Z,55.58
2022-07-29T21:03:45.316Z,55.61
2022-07-29T21:08:45.054Z,56.09
2022-07-29T21:13:45.605Z,56.24
2022-07-29T21:18:46.509Z,56.45
2022-07-29T21:23:47.617Z,57.66
2022-07-29T21:28:47.506Z,57.04
2022-07-29T21:33:51.274Z,57.96
2022-07-29T21:38:51.097Z,58.21
2022-07-29T21:43:49.844Z,58.08
2022-07-29T21:48:49.374Z,57.99
2022-07-29T21:53:48.814Z,58.24
2022-07-29T21:58:48.402Z,58.49
2022-07-29T22:03:46.979Z,59.11
2022-07-29T22:08:49.236Z,58.81
2022-07-29T22:13:49.834Z,58.57
2022-07-29T22:18:49.710Z,58.64
2022-07-29T22:23:49.231Z,59.08
2022-07-29T22:28:49.149Z,59.56
2022-07-29T22:33:52.992Z,59.77
2022-07-29T22:38:52.279Z,59.83
2022-07-29T22:43:51.909Z,59.81
2022-07-29T22:48:51.463Z,60.28
2022-07-29T22:53:50.637Z,60.12
2022-07-29T22:58:50.191Z,60.07
2022-07-29T23:03:50.951Z,60.45
2022-07-29T23:08:52.499Z,60.46
2022-07-29T23:13:51.792Z,60.51
2022-07-29T23:18:52.933Z,60.93
2022-07-29T23:23:52.122Z,61.16
2022-07-29T23:28:50.976Z,60.65
2022-07-29T23:33:52.559Z,60.78
2022-07-29T23:39:09.993Z,61.03
2022-07-29T23:44:18.862Z,61.10
2022-07-29T23:49:18.723Z,60.78
2022-07-29T23:54:18.167Z,60.87
2022-07-29T23:59:17.580Z,61.30
